KCNK/CNK METAR and TAF weather

Enter ICAO airport designator
Station Type Date Time Source
KCNK METAR 2019/10/18 05:55 UTC NOAA

KCNK 180555Z AUTO 17013KT 10SM CLR 16/06 A2970 RMK AO2 PK WND 16026/0521 SLP047 T01560056 10189 20156 402610039 58010


Station Type Date Time Source
KCNK Decoded METAR 2019/10/18 05:55 UTC NOAA

Concordia, Blosser Municipal Airport, KS, United States (KCNK) 39-33-05N 097-39-02W 447M
Oct 18, 2019 - 01:55 AM EDT / 2019.10.18 0555 UTC
Wind: from the S (170 degrees) at 15 MPH (13 KT):0
Visibility: 10 mile(s):0
Sky conditions: clear
Temperature: 60.1 F (15.6 C)
Dew Point: 42.1 F (5.6 C)
Relative Humidity: 51%
Pressure (altimeter): 29.7 in. Hg (1005 hPa)
Pressure tendency: 0.03 inches (1.0 hPa) lower than three hours ago
ob: KCNK 180555Z AUTO 17013KT 10SM CLR 16/06 A2970 RMK AO2 PK WND 16026/0521 SLP047 T01560056 10189 20156 402610039 58010
cycle: 6

Station Type Date Time Source
KCNK TAF UTC NOAA

Error!

Example: see airport list